Time;durP1;ratioP1;P1;durP2;ratioP2;P2;SDS_P1;SDS_P2;PMS_P1;PMS_P2;Temp;Humidity;BMP_temperature;BMP_pressure;BME280_temperature;BME280_humidity;BME280_pressure;Samples;Min_cycle;Max_cycle;Signal;HPM_P1;HPM_P2
2021/12/26 00:00:14;;;;;;;6.57;3.20;;;0.90;78.00;;;-1.33;68.46;99841.97;4987899;28;20132;-83
2021/12/26 00:02:41;;;;;;;7.63;3.40;;;0.80;77.80;;;-1.35;68.73;99849.25;4986680;28;20069;-83
2021/12/26 00:05:09;;;;;;;6.32;3.10;;;0.70;78.10;;;-1.40;68.23;99851.44;4987242;28;20077;-83
2021/12/26 00:07:37;;;;;;;8.93;3.50;;;0.70;78.00;;;-1.36;68.65;99854.69;4987814;28;20042;-84
2021/12/26 00:10:10;;;;;;;7.97;3.53;;;0.70;78.10;;;-1.34;68.62;99855.41;4987538;28;20292;-84
2021/12/26 00:12:39;;;;;;;6.97;3.42;;;0.80;78.50;;;-1.31;68.91;99848.00;4986880;28;20050;-84
2021/12/26 00:15:08;;;;;;;7.28;3.42;;;0.80;78.60;;;-1.27;68.74;99851.28;5003080;22;20044;-79
2021/12/26 00:17:36;;;;;;;6.78;3.40;;;0.80;78.50;;;-1.27;68.80;99849.47;4977174;28;20133;-79
2021/12/26 00:20:07;;;;;;;6.75;3.53;;;0.80;78.40;;;-1.26;68.08;99848.47;4977257;28;20042;-79
2021/12/26 00:22:34;;;;;;;;;;;0.80;78.50;;;-1.27;68.22;99844.13;4979772;28;20070;-79
2021/12/26 00:25:02;;;;;;;9.40;4.15;;;0.80;78.40;;;-1.29;68.19;99838.06;4975421;28;20390;-79
2021/12/26 00:27:29;;;;;;;7.70;3.75;;;0.80;78.20;;;-1.36;68.04;99828.84;4958628;28;20397;-79
2021/12/26 00:29:58;;;;;;;8.50;3.65;;;0.80;78.00;;;-1.39;68.49;99831.75;4960549;28;20051;-79
2021/12/26 00:32:25;;;;;;;6.63;3.33;;;0.80;78.50;;;-1.42;68.79;99832.88;4958990;28;20086;-81
2021/12/26 00:34:52;;;;;;;10.30;3.63;;;0.70;78.70;;;-1.40;69.79;99825.56;4959783;28;20058;-79
2021/12/26 00:37:21;;;;;;;7.93;3.40;;;0.80;79.30;;;-1.41;69.51;99829.25;4958712;28;20043;-79
2021/12/26 00:39:48;;;;;;;7.53;3.60;;;0.70;78.70;;;-1.41;69.38;99820.38;4961166;28;20070;-79
2021/12/26 00:42:15;;;;;;;6.95;3.45;;;0.70;79.10;;;-1.36;69.68;99820.00;4958687;28;20082;-79
2021/12/26 00:44:43;;;;;;;7.07;3.58;;;0.70;79.50;;;-1.36;69.42;99820.84;4958528;28;20047;-79
2021/12/26 00:47:14;;;;;;;7.35;3.63;;;0.70;79.20;;;-1.33;69.16;99819.72;4959506;28;20059;-79
2021/12/26 00:49:42;;;;;;;5.60;3.03;;;0.70;79.30;;;-1.36;69.45;99820.84;4960563;28;20086;-79
2021/12/26 00:52:10;;;;;;;7.13;3.50;;;0.70;79.10;;;-1.33;69.32;99819.72;4958645;28;20065;-79
2021/12/26 00:54:37;;;;;;;7.38;3.83;;;0.70;79.30;;;-1.32;70.02;99816.94;4960513;28;20051;-79
2021/12/26 00:57:06;;;;;;;8.27;3.42;;;0.70;79.40;;;-1.32;69.98;99806.25;4960060;28;20123;-79
2021/12/26 00:59:33;;;;;;;7.85;3.58;;;0.70;79.30;;;-1.38;69.84;99801.44;4958319;28;20137;-79
2021/12/26 01:02:01;;;;;;;6.72;3.22;;;0.70;79.30;;;-1.34;70.19;99799.38;4959774;28;20051;-79
2021/12/26 01:04:30;;;;;;;6.45;3.22;;;0.80;79.80;;;-1.31;70.12;99804.47;4958331;28;20043;-79
2021/12/26 01:06:59;;;;;;;7.03;3.72;;;0.80;79.70;;;-1.37;70.01;99800.47;4990229;28;20047;-79
2021/12/26 01:09:29;;;;;;;8.65;3.70;;;0.80;79.60;;;-1.35;70.79;99806.53;4974821;28;20407;-79
2021/12/26 01:12:06;;;;;;;6.28;3.22;;;0.80;79.60;;;-1.35;70.25;99803.88;4957910;28;20058;-79
2021/12/26 01:14:40;;;;;;;7.30;3.60;;;0.80;79.70;;;-1.33;70.61;99814.41;4958620;28;20035;-79
2021/12/26 01:17:17;;;;;;;7.80;3.83;;;0.80;79.90;;;-1.32;70.54;99806.25;4958268;28;20534;-79
2021/12/26 01:20:11;;;;;;;8.25;3.63;;;0.80;79.80;;;-1.32;70.76;99806.25;4958351;28;20514;-80
2021/12/26 01:22:39;;;;;;;9.32;3.88;;;0.80;79.70;;;-1.34;71.02;99804.72;4957344;28;20459;-79
2021/12/26 01:25:11;;;;;;;8.75;3.58;;;0.80;80.00;;;-1.32;70.49;99798.25;4958911;28;20420;-79
2021/12/26 01:27:38;;;;;;;7.90;3.70;;;0.80;79.80;;;-1.27;70.51;99793.41;4959135;28;20055;-79
2021/12/26 01:30:07;;;;;;;7.15;3.53;;;0.80;80.00;;;-1.26;70.36;99792.41;4958400;28;20137;-80
2021/12/26 01:32:38;;;;;;;6.90;3.60;;;0.80;80.20;;;-1.25;70.60;99791.44;4990334;28;20047;-79
2021/12/26 01:35:25;;;;;;;7.85;3.60;;;0.80;80.30;;;-1.27;70.97;99788.06;4959909;28;20525;-79
2021/12/26 01:38:13;;;;;;;10.32;4.00;;;0.80;80.50;;;-1.27;71.49;99788.06;4959151;28;20136;-79
2021/12/26 01:40:53;;;;;;;6.07;3.20;;;0.80;81.20;;;-1.31;70.88;99781.28;4958093;28;20129;-79
2021/12/26 01:43:57;;;;;;;7.65;3.67;;;0.80;80.60;;;-1.24;71.39;99781.59;4956241;28;20527;-79
2021/12/26 01:46:36;;;;;;;6.72;3.63;;;0.80;80.60;;;-1.22;71.66;99785.88;4961354;28;20051;-79
2021/12/26 01:49:09;;;;;;;6.50;3.30;;;0.90;80.70;;;-1.27;71.79;99790.72;4962554;28;20059;-79
2021/12/26 01:51:40;;;;;;;7.22;3.75;;;0.80;80.90;;;-1.21;71.74;99787.53;4986241;28;20142;-79
2021/12/26 01:54:10;;;;;;;8.00;4.00;;;0.80;81.20;;;-1.26;71.64;99792.41;4964278;28;20086;-79
2021/12/26 01:56:38;;;;;;;9.18;3.85;;;0.80;80.90;;;-1.29;71.63;99784.69;4963836;28;20047;-79
2021/12/26 01:59:09;;;;;;;6.97;3.38;;;0.80;80.80;;;-1.30;71.83;99788.31;4962383;28;20039;-79
2021/12/26 02:01:56;;;;;;;8.48;3.63;;;0.80;80.90;;;-1.23;71.49;99784.16;4962034;28;20575;-79
2021/12/26 02:04:26;;;;;;;7.03;3.70;;;0.80;80.80;;;-1.22;71.89;99785.00;4978049;28;20047;-79
2021/12/26 02:06:55;;;;;;;6.85;3.35;;;0.80;81.10;;;-1.27;72.05;99787.22;4962830;28;20403;-79
2021/12/26 02:09:23;;;;;;;7.55;4.05;;;1.00;80.80;;;-1.27;72.48;99781.88;4963474;28;20582;-79
2021/12/26 02:11:54;;;;;;;8.18;3.92;;;0.90;81.00;;;-1.29;72.60;99790.00;4962022;28;20141;-79
2021/12/26 02:14:22;;;;;;;6.70;4.00;;;0.90;81.00;;;-1.29;72.58;99791.84;4961942;28;20053;-80
2021/12/26 02:17:07;;;;;;;10.13;3.95;;;0.90;81.40;;;-1.30;73.09;99782.97;4963410;28;20053;-79
2021/12/26 02:19:35;;;;;;;9.40;4.30;;;1.00;81.60;;;-1.23;72.98;99784.16;4977765;28;20078;-79
2021/12/26 02:22:10;;;;;;;9.15;3.80;;;1.00;81.60;;;-1.19;73.28;99771.41;4961391;28;20141;-80
2021/12/26 02:25:10;;;;;;;6.70;3.70;;;1.00;81.60;;;-1.13;73.13;99776.22;4965770;28;20039;-79
2021/12/26 02:27:42;;;;;;;6.63;3.50;;;1.00;81.70;;;-1.09;73.08;99771.47;4961618;28;20050;-79
2021/12/26 02:30:13;;;;;;;8.77;3.97;;;0.90;82.20;;;-1.09;72.72;99774.16;4993755;28;20047;-79
2021/12/26 02:32:46;;;;;;;11.63;3.70;;;1.00;81.60;;;-1.16;72.40;99776.50;4961945;28;20046;-79
2021/12/26 02:35:15;;;;;;;8.07;3.67;;;1.00;81.60;;;-1.12;73.20;99772.59;4961210;28;20454;-79
2021/12/26 02:37:43;;;;;;;7.18;3.70;;;1.00;81.80;;;-1.12;72.74;99769.94;4977076;28;20055;-79
2021/12/26 02:40:13;;;;;;;8.07;3.85;;;1.00;81.80;;;-1.12;72.77;99772.59;4961666;28;20055;-79
2021/12/26 02:42:40;;;;;;;7.47;3.83;;;1.00;81.60;;;-1.16;72.37;99763.16;4961104;28;20034;-79
2021/12/26 02:45:09;;;;;;;7.22;3.60;;;1.00;81.20;;;-1.16;72.99;99767.63;4962968;28;20075;-79
2021/12/26 02:47:39;;;;;;;8.02;3.90;;;1.00;81.60;;;-1.12;72.98;99766.38;4961708;28;20046;-79
2021/12/26 02:50:11;;;;;;;8.05;3.45;;;1.10;81.70;;;-1.14;72.63;99763.00;4963765;28;20130;-79
2021/12/26 02:52:38;;;;;;;10.00;3.70;;;1.00;81.60;;;-1.14;72.73;99757.66;4961364;28;20101;-79
2021/12/26 02:55:09;;;;;;;7.22;3.95;;;1.00;81.60;;;-1.19;72.68;99764.25;4960801;28;20094;-79
2021/12/26 02:57:36;;;;;;;7.53;3.78;;;0.90;81.50;;;-1.20;72.86;99761.69;4960966;28;20047;-79
2021/12/26 03:00:08;;;;;;;8.35;3.80;;;1.00;81.70;;;-1.14;73.32;99760.34;4961383;28;20047;-79
2021/12/26 03:02:36;;;;;;;;;;;0.90;81.70;;;-1.14;73.68;99765.66;4993011;28;20054;-79
2021/12/26 03:05:06;;;;;;;8.75;4.18;;;0.90;82.10;;;-1.08;72.99;99758.00;4977313;28;19981;-79
2021/12/26 03:07:33;;;;;;;11.07;4.15;;;1.00;81.90;;;-1.16;72.37;99757.81;4961073;28;20051;-79
2021/12/26 03:10:01;;;;;;;8.55;3.88;;;0.90;81.70;;;-1.27;72.85;99771.22;4960781;28;20042;-79
2021/12/26 03:12:31;;;;;;;7.97;4.05;;;1.00;81.50;;;-1.26;72.66;99756.88;4962753;28;20062;-80
2021/12/26 03:14:59;;;;;;;8.38;3.80;;;1.00;81.10;;;-1.22;73.03;99764.50;4961314;28;20047;-79
2021/12/26 03:17:26;;;;;;;8.95;3.55;;;1.00;81.60;;;-1.22;73.22;99763.63;4960662;28;20050;-79
2021/12/26 03:19:53;;;;;;;8.15;4.00;;;0.90;81.70;;;-1.26;73.75;99763.03;4993378;28;20101;-79
2021/12/26 03:22:24;;;;;;;10.35;3.78;;;0.90;82.00;;;-1.23;73.17;99761.97;4960326;28;20117;-79
2021/12/26 03:24:51;;;;;;;11.48;3.92;;;0.90;82.20;;;-1.22;73.98;99764.50;4962321;28;20066;-79
2021/12/26 03:27:19;;;;;;;8.35;3.70;;;0.90;82.40;;;-1.21;73.29;99760.84;4961607;28;20477;-80
2021/12/26 03:29:47;;;;;;;9.15;4.38;;;1.00;81.90;;;-1.19;72.88;99769.56;4962187;28;20074;-79
2021/12/26 03:32:19;;;;;;;7.90;3.67;;;0.90;81.60;;;-1.19;73.88;99763.41;4968650;28;20130;-79
2021/12/26 03:34:48;;;;;;;6.97;3.95;;;0.90;82.00;;;-1.15;74.11;99764.00;4961772;28;20067;-79
2021/12/26 03:37:15;;;;;;;6.50;3.58;;;0.90;82.30;;;-1.17;73.75;99757.94;4959937;28;20146;-79
2021/12/26 03:39:44;;;;;;;8.35;3.70;;;1.00;82.20;;;-1.22;73.63;99764.50;4960955;28;20133;-79
2021/12/26 03:42:12;;;;;;;7.82;3.95;;;1.00;81.70;;;-1.20;73.65;99761.69;4960273;28;20150;-79
2021/12/26 03:44:42;;;;;;;8.32;4.05;;;1.00;81.80;;;-1.22;73.82;99763.63;4975995;28;20531;-79
2021/12/26 03:47:11;;;;;;;10.25;4.18;;;1.00;82.10;;;-1.14;73.66;99765.66;4960722;28;20054;-79
2021/12/26 03:49:38;;;;;;;7.50;4.10;;;1.00;82.20;;;-1.14;73.93;99755.88;4960511;28;20058;-79
2021/12/26 03:52:07;;;;;;;8.07;3.85;;;1.00;82.10;;;-1.13;73.08;99757.53;4959716;28;20101;-79
2021/12/26 03:54:34;;;;;;;9.57;3.65;;;1.00;81.80;;;-1.15;73.44;99753.31;4959672;28;20058;-79
2021/12/26 03:57:01;;;;;;;6.57;3.50;;;1.10;81.70;;;-1.12;73.38;99748.56;4959949;28;20058;-79
2021/12/26 03:59:29;;;;;;;6.43;3.58;;;1.10;81.80;;;-1.14;73.16;99750.53;4960149;28;20059;-79
2021/12/26 04:01:57;;;;;;;7.82;3.88;;;1.00;81.60;;;-1.13;73.44;99756.69;4960088;28;20523;-79
2021/12/26 04:04:27;;;;;;;7.80;3.60;;;1.00;81.60;;;-1.19;73.06;99747.38;4960986;28;20130;-79
2021/12/26 04:06:54;;;;;;;8.63;3.90;;;1.20;81.70;;;-1.22;73.46;99748.50;4960224;28;20046;-79
2021/12/26 04:09:21;;;;;;;8.75;3.53;;;1.00;81.60;;;-1.22;73.52;99748.50;4959144;28;20116;-79
2021/12/26 04:11:49;;;;;;;7.53;3.88;;;1.00;82.00;;;-1.24;72.94;99745.09;4959191;28;20110;-79
2021/12/26 04:14:21;;;;;;;7.05;3.50;;;1.00;81.40;;;-1.26;73.22;99746.19;4959102;28;20059;-79
2021/12/26 04:16:49;;;;;;;7.80;3.78;;;1.00;81.40;;;-1.25;72.23;99748.75;4959182;28;20380;-79
2021/12/26 04:19:16;;;;;;;6.93;3.47;;;1.00;81.10;;;-1.33;71.70;99745.00;4958891;28;20506;-79
2021/12/26 04:21:46;;;;;;;8.13;3.60;;;1.00;80.20;;;-1.28;72.71;99738.31;4960306;28;20054;-79
2021/12/26 04:24:14;;;;;;;7.85;3.78;;;1.00;80.80;;;-1.25;72.74;99735.38;4961324;28;20054;-79
2021/12/26 04:26:41;;;;;;;7.88;3.67;;;0.90;81.20;;;-1.24;72.92;99739.78;4961029;28;20142;-79
2021/12/26 04:29:10;;;;;;;7.93;3.42;;;0.90;81.40;;;-1.20;72.93;99740.34;4959588;28;20058;-79
2021/12/26 04:31:37;;;;;;;7.97;3.95;;;1.00;81.30;;;-1.28;72.86;99742.81;4959239;28;20051;-79
2021/12/26 04:34:05;;;;;;;8.93;3.78;;;0.90;81.30;;;-1.24;73.21;99750.44;4961463;28;20527;-79
2021/12/26 04:36:33;;;;;;;6.35;3.63;;;0.90;81.70;;;-1.27;73.52;99739.19;4961055;28;20444;-79
2021/12/26 04:39:02;;;;;;;6.93;3.63;;;0.90;81.80;;;-1.19;73.28;99752.72;4958987;28;20073;-79
2021/12/26 04:41:30;;;;;;;8.63;3.83;;;0.90;81.60;;;-1.16;72.90;99740.94;4959233;28;20059;-79
2021/12/26 04:44:25;;;;;;;7.47;3.95;;;1.00;81.60;;;-1.15;72.71;99747.97;4947916;28;20047;-79
2021/12/26 04:47:16;;;;;;;7.85;3.72;;;1.00;81.30;;;-1.14;72.43;99749.66;4951242;28;20051;-79
2021/12/26 04:49:43;;;;;;;9.30;4.00;;;1.00;81.10;;;-1.16;72.51;99751.59;4959400;28;20508;-78
2021/12/26 04:52:10;;;;;;;7.60;3.60;;;1.00;81.20;;;-1.23;71.79;99751.28;4959079;28;20057;-79
2021/12/26 04:54:39;;;;;;;7.05;3.47;;;1.00;80.60;;;-1.24;72.07;99745.09;4982819;28;20051;-79
2021/12/26 04:57:07;;;;;;;6.90;3.40;;;1.00;80.60;;;-1.18;72.04;99749.09;4959147;28;20147;-79
2021/12/26 04:59:34;;;;;;;5.22;3.13;;;1.00;80.80;;;-1.15;72.33;99742.63;4959465;28;20134;-79
2021/12/26 05:02:02;;;;;;;7.68;3.78;;;1.00;80.90;;;-1.14;72.16;99745.19;4958342;28;20054;-79
2021/12/26 05:04:29;;;;;;;8.02;3.53;;;0.90;80.90;;;-1.18;72.75;99743.75;4959894;28;20051;-79
2021/12/26 05:06:56;;;;;;;7.75;4.13;;;0.90;81.40;;;-1.14;73.08;99744.31;4991479;28;20483;-79
2021/12/26 05:09:25;;;;;;;7.70;3.45;;;0.90;81.60;;;-1.17;72.88;99736.59;4960086;28;20070;-79
2021/12/26 05:11:57;;;;;;;7.53;3.47;;;0.90;81.50;;;-1.16;72.59;99735.59;4958227;28;20605;-79
2021/12/26 05:14:25;;;;;;;8.63;3.90;;;0.90;81.40;;;-1.16;72.68;99731.13;4960265;28;20051;-79
2021/12/26 05:16:52;;;;;;;7.70;3.60;;;1.00;81.60;;;-1.13;72.64;99735.34;4957752;28;20078;-79
2021/12/26 05:19:20;;;;;;;6.22;3.47;;;0.90;81.50;;;-1.12;72.19;99727.22;4959866;28;20078;-79
2021/12/26 05:21:47;;;;;;;7.25;3.78;;;0.90;81.60;;;-1.09;72.53;99726.94;4958322;28;20408;-79
2021/12/26 05:24:14;;;;;;;6.15;3.67;;;0.90;81.60;;;-1.07;72.55;99718.78;4961972;28;20138;-81
2021/12/26 05:26:43;;;;;;;8.75;3.45;;;1.00;81.70;;;-1.06;72.39;99723.19;4965501;28;20078;-79
2021/12/26 05:29:12;;;;;;;6.55;3.47;;;0.90;81.90;;;-1.08;71.97;99717.97;5002623;28;20047;-79
2021/12/26 05:31:39;;;;;;;6.18;3.35;;;0.90;81.60;;;-1.08;72.23;99717.97;4968552;28;20138;-79
2021/12/26 05:34:06;;;;;;;7.65;3.83;;;0.90;81.70;;;-1.06;72.88;99712.50;4961024;28;20046;-79
2021/12/26 05:36:34;;;;;;;6.53;3.67;;;0.90;81.70;;;-1.08;72.96;99709.94;4989881;28;20480;-79
2021/12/26 05:39:01;;;;;;;6.00;3.42;;;0.90;82.10;;;-1.02;73.42;99700.56;4990846;28;20681;-79
2021/12/26 05:41:29;;;;;;;7.40;3.50;;;0.90;82.30;;;-1.01;72.60;99700.44;4989297;28;20157;-79
2021/12/26 05:44:12;;;;;;;7.82;3.70;;;1.00;82.00;;;-1.07;71.87;99702.78;4959034;28;20069;-79
2021/12/26 05:46:39;;;;;;;5.75;3.08;;;0.90;81.60;;;-1.09;72.74;99710.06;4958264;28;20586;-79
2021/12/26 05:49:06;;;;;;;6.68;3.45;;;0.90;81.60;;;-1.09;72.46;99712.75;4974678;28;20555;-79
2021/12/26 05:51:45;;;;;;;5.82;3.28;;;0.90;81.60;;;-1.06;72.36;99709.81;4958506;28;20054;-79
2021/12/26 05:54:37;;;;;;;6.30;2.90;;;1.00;81.60;;;-1.04;72.71;99713.22;4958117;28;20105;-79
2021/12/26 05:57:06;;;;;;;5.43;3.38;;;1.00;81.60;;;-1.06;72.75;99710.66;4957895;28;20470;-79
2021/12/26 05:59:35;;;;;;;6.30;3.38;;;1.00;81.90;;;-1.10;73.22;99711.06;4959228;28;20054;-79
2021/12/26 06:02:03;;;;;;;6.35;3.53;;;1.00;81.80;;;-1.08;72.75;99703.78;4958257;28;20643;-80
2021/12/26 06:04:33;;;;;;;7.22;3.60;;;1.00;81.80;;;-1.04;72.45;99703.38;4989930;28;20046;-79
2021/12/26 06:07:01;;;;;;;6.90;3.65;;;1.00;81.90;;;-1.00;72.44;99709.28;4958333;28;20476;-79
2021/12/26 06:09:29;;;;;;;7.03;3.83;;;1.00;81.60;;;-1.02;72.92;99705.91;4958566;28;20165;-79
2021/12/26 06:11:56;;;;;;;7.63;3.60;;;1.00;81.90;;;-1.02;72.69;99704.06;4958098;28;20825;-79
2021/12/26 06:14:24;;;;;;;7.07;3.53;;;1.00;82.00;;;-1.05;72.31;99701.69;4957801;28;20055;-78
2021/12/26 06:16:53;;;;;;;6.90;3.40;;;1.00;81.60;;;-1.02;72.76;99696.06;4953534;23;1138200;-85
2021/12/26 06:19:43;;;;;;;5.93;3.22;;;1.10;81.70;;;-1.00;72.96;99703.97;5004543;28;20050;-84
2021/12/26 06:22:31;;;;;;;8.57;3.60;;;1.00;81.60;;;-0.99;72.93;99706.50;4987885;28;20054;-84
2021/12/26 06:25:18;;;;;;;6.28;3.38;;;1.00;81.70;;;-1.02;72.90;99705.91;5006923;28;20141;-85
2021/12/26 06:27:50;;;;;;;7.43;3.80;;;1.00;81.80;;;-0.97;72.38;99709.06;4980813;28;20046;-84
2021/12/26 06:30:24;;;;;;;7.40;3.60;;;1.10;81.70;;;-0.99;72.40;99705.63;4998354;28;20500;-85
2021/12/26 06:33:15;;;;;;;7.00;3.50;;;1.00;81.50;;;-1.01;72.49;99703.13;4999070;28;20518;-84
2021/12/26 06:36:16;;;;;;;6.63;3.78;;;1.30;81.90;;;-1.04;73.14;99710.53;5000947;28;20046;-85
2021/12/26 06:39:07;;;;;;;7.07;3.42;;;1.10;81.90;;;-0.97;72.93;99701.03;5000672;28;20038;-84
2021/12/26 06:41:54;;;;;;;5.97;3.40;;;1.10;81.70;;;-0.95;72.74;99707.09;4965953;28;20059;-85
2021/12/26 06:44:40;;;;;;;6.45;3.35;;;1.10;81.80;;;-0.98;72.23;99697.50;5001048;28;20509;-84
2021/12/26 06:47:18;;;;;;;6.68;3.40;;;1.10;81.70;;;-1.05;72.73;99696.34;4984007;28;20054;-84
2021/12/26 06:49:52;;;;;;;7.32;3.80;;;1.10;81.90;;;-1.01;73.28;99702.25;4984614;28;20060;-84
2021/12/26 06:52:20;;;;;;;8.52;3.90;;;1.10;82.10;;;-1.01;72.47;99691.56;4984109;28;20510;-84
2021/12/26 06:54:48;;;;;;;8.20;3.80;;;1.10;81.70;;;-1.00;72.69;99696.78;5001484;28;20038;-84
2021/12/26 06:57:18;;;;;;;8.00;3.70;;;1.10;81.70;;;-1.00;72.54;99693.28;4983305;28;20134;-85
2021/12/26 06:59:45;;;;;;;7.07;3.70;;;1.10;81.60;;;-1.03;73.43;99691.72;5000465;28;20129;-84
2021/12/26 07:02:12;;;;;;;8.57;4.15;;;1.10;82.10;;;-1.03;72.65;99696.19;4983115;28;20526;-84
2021/12/26 07:04:55;;;;;;;7.68;4.10;;;1.10;81.90;;;-1.00;73.21;99693.28;4983553;28;20049;-84
2021/12/26 07:07:26;;;;;;;8.93;4.32;;;1.10;81.70;;;-1.01;72.49;99679.09;4983365;28;20055;-85
2021/12/26 07:09:54;;;;;;;8.55;4.07;;;1.10;81.70;;;-0.96;72.44;99693.88;4983606;28;20050;-84
2021/12/26 07:12:22;;;;;;;8.75;4.13;;;1.10;81.70;;;-1.00;72.44;99687.94;4979709;28;20069;-84
2021/12/26 07:15:02;;;;;;;8.75;4.10;;;1.10;81.70;;;-1.00;72.95;99683.44;4983057;28;20054;-84
2021/12/26 07:17:30;;;;;;;7.68;3.92;;;1.10;81.70;;;-0.94;73.13;99692.75;4982339;28;20046;-84
2021/12/26 07:19:58;;;;;;;6.55;3.60;;;1.10;81.90;;;-0.93;72.32;99698.91;4983132;28;20096;-84
2021/12/26 07:22:49;;;;;;;7.28;3.97;;;1.10;81.70;;;-0.95;73.29;99696.41;5000467;28;20046;-84
2021/12/26 07:25:16;;;;;;;6.82;3.85;;;1.10;82.00;;;-0.97;73.21;99695.69;4982084;28;20510;-84
2021/12/26 07:27:44;;;;;;;7.00;3.72;;;1.10;82.10;;;-0.95;73.40;99707.09;4983146;28;20064;-84
2021/12/26 07:30:38;;;;;;;6.50;3.45;;;1.10;82.20;;;-0.93;73.87;99699.78;4994105;28;20554;-85
2021/12/26 07:33:05;;;;;;;7.25;3.55;;;1.10;82.60;;;-0.94;74.23;99695.41;4982542;28;20054;-84
2021/12/26 07:35:35;;;;;;;7.13;3.58;;;1.10;82.80;;;-0.92;73.45;99701.47;4982255;28;20188;-84
2021/12/26 07:38:21;;;;;;;7.85;3.75;;;1.10;82.40;;;-0.96;74.49;99700.03;5000179;28;20128;-84
2021/12/26 07:40:49;;;;;;;7.53;4.03;;;1.20;82.90;;;-0.92;75.19;99704.13;4982725;28;20105;-84
2021/12/26 07:43:28;;;;;;;5.95;3.53;;;1.20;82.90;;;-0.92;74.82;99696.13;4981035;28;20049;-84
2021/12/26 07:46:21;;;;;;;7.47;3.70;;;1.20;83.10;;;-0.86;74.58;99700.94;4970279;28;20077;-84
2021/12/26 07:48:50;;;;;;;8.15;3.50;;;1.20;82.90;;;-0.79;73.93;99701.28;4981828;28;20550;-84
2021/12/26 07:51:38;;;;;;;7.68;3.22;;;1.20;82.70;;;-0.80;74.44;99697.75;5000387;28;20192;-84
2021/12/26 07:54:25;;;;;;;7.10;3.53;;;1.20;83.00;;;-0.79;74.33;99701.28;5000086;28;20064;-85
2021/12/26 07:57:27;;;;;;;8.23;3.63;;;1.30;83.00;;;-0.75;74.29;99709.88;4939557;29;20043;-84
2021/12/26 08:00:15;;;;;;;9.10;4.05;;;1.30;82.90;;;-0.86;74.53;99705.44;4995111;28;20061;-85
2021/12/26 08:02:55;;;;;;;7.40;4.18;;;1.30;83.10;;;-0.91;74.57;99692.50;4999754;28;20054;-84
2021/12/26 08:05:41;;;;;;;6.78;3.85;;;1.30;82.80;;;-0.83;74.90;99706.03;4999932;28;20065;-84
2021/12/26 08:08:20;;;;;;;6.72;3.67;;;1.30;83.00;;;-0.84;74.91;99704.34;4982246;28;20532;-84
2021/12/26 08:10:47;;;;;;;7.65;3.85;;;1.20;83.20;;;-0.85;75.44;99691.97;4981673;28;20053;-88
2021/12/26 08:13:15;;;;;;;10.25;4.20;;;1.30;83.50;;;-0.77;76.32;99703.81;4982462;28;20046;-90
2021/12/26 08:15:42;;;;;;;8.07;4.40;;;1.30;84.00;;;-0.74;76.18;99708.88;4982054;28;20037;-86
2021/12/26 08:18:09;;;;;;;7.97;4.70;;;1.30;84.10;;;-0.76;75.68;99694.81;4998933;28;20066;-85
2021/12/26 08:20:37;;;;;;;8.45;4.72;;;1.30;84.10;;;-0.71;75.65;99697.94;4999428;28;20070;-87
2021/12/26 08:23:05;;;;;;;6.55;4.10;;;1.30;84.00;;;-0.74;75.47;99704.41;4998025;28;20044;-84
2021/12/26 08:25:33;;;;;;;8.27;4.18;;;1.30;84.00;;;-0.75;76.10;99696.50;4999642;28;20074;-85
2021/12/26 08:28:01;;;;;;;9.10;4.55;;;1.40;84.10;;;-0.64;76.59;99691.09;4999773;28;20143;-85
2021/12/26 08:30:30;;;;;;;8.68;4.25;;;1.40;84.30;;;-0.55;75.11;99692.09;4999139;28;20138;-85
2021/12/26 08:33:04;;;;;;;10.00;4.90;;;1.30;84.20;;;-0.57;75.83;99688.72;4998612;28;20046;-84
2021/12/26 08:35:33;;;;;;;6.25;3.88;;;1.40;84.10;;;-0.47;75.29;99698.47;4982088;28;20076;-84
2021/12/26 08:38:00;;;;;;;9.82;4.15;;;1.40;84.20;;;-0.50;75.41;99693.38;4999145;28;20080;-85
2021/12/26 08:40:28;;;;;;;7.93;4.13;;;1.40;84.10;;;-0.47;75.23;99679.78;4999509;28;20072;-84
2021/12/26 08:42:56;;;;;;;7.05;3.83;;;1.40;84.30;;;-0.43;75.13;99694.56;4999041;28;20065;-84
2021/12/26 08:45:25;;;;;;;7.60;3.92;;;1.40;84.10;;;-0.45;76.19;99701.03;4999947;28;20582;-84
2021/12/26 08:47:52;;;;;;;7.85;4.18;;;1.50;84.80;;;-0.44;76.05;99700.03;5000065;28;20037;-86
2021/12/26 08:50:20;;;;;;;7.90;4.30;;;1.50;84.70;;;-0.45;75.80;99699.19;4998762;28;20073;-85
2021/12/26 08:52:48;;;;;;;8.35;4.57;;;1.50;84.40;;;-0.42;75.77;99698.94;4999854;28;20042;-86
2021/12/26 08:55:16;;;;;;;7.15;4.10;;;1.50;84.40;;;-0.36;75.97;99702.03;4998920;28;20048;-85
2021/12/26 08:57:43;;;;;;;7.90;3.97;;;1.50;84.60;;;-0.37;76.10;99695.00;4981540;28;20061;-85
2021/12/26 09:00:14;;;;;;;9.75;4.75;;;1.60;84.50;;;-0.32;76.13;99692.78;4999641;28;20109;-85
2021/12/26 09:02:41;;;;;;;8.70;4.93;;;1.60;84.50;;;-0.29;75.63;99697.84;4998791;28;20502;-86
2021/12/26 09:05:11;;;;;;;7.55;4.68;;;1.60;84.20;;;-0.24;76.61;99706.31;4998930;28;20080;-85
2021/12/26 09:07:38;;;;;;;7.82;4.10;;;1.60;84.90;;;-0.29;76.62;99697.84;4999517;28;20547;-85
2021/12/26 09:10:08;;;;;;;6.95;4.10;;;1.70;84.90;;;-0.22;76.34;99694.50;4998554;28;20034;-85
2021/12/26 09:12:36;;;;;;;8.02;4.00;;;1.70;85.10;;;-0.17;75.93;99693.22;4997860;28;20038;-85
2021/12/26 09:15:07;;;;;;;7.60;4.38;;;1.70;84.60;;;-0.19;75.84;99698.75;4998615;28;20064;-82
2021/12/26 09:17:36;;;;;;;7.72;4.45;;;1.70;84.10;;;-0.17;76.29;99693.22;4996911;28;20676;-82
2021/12/26 09:20:05;;;;;;;9.02;4.80;;;1.70;84.80;;;-0.06;76.72;99704.69;4998711;28;20073;-82
2021/12/26 09:22:33;;;;;;;7.68;4.35;;;1.80;85.30;;;-0.06;77.04;99704.69;4998884;28;20121;-82
2021/12/26 09:25:00;;;;;;;7.65;4.60;;;1.80;85.30;;;-0.16;76.14;99703.78;4999210;28;20081;-82
2021/12/26 09:27:28;;;;;;;8.38;4.78;;;1.90;84.30;;;-0.09;76.66;99710.31;4998948;28;20038;-81
2021/12/26 09:29:55;;;;;;;9.27;4.57;;;1.90;84.70;;;-0.02;77.39;99713.25;4997462;28;20124;-84
2021/12/26 09:32:22;;;;;;;9.90;5.07;;;1.90;85.10;;;-0.02;77.46;99711.47;4997897;28;20042;-80
2021/12/26 09:34:51;;;;;;;9.27;4.90;;;1.90;85.30;;;-0.01;76.90;99713.13;4998264;28;20046;-80
2021/12/26 09:37:18;;;;;;;9.80;5.00;;;2.00;85.00;;;0.01;77.45;99715.69;4998004;28;20042;-80
2021/12/26 09:39:46;;;;;;;9.93;5.18;;;2.00;85.10;;;0.02;76.83;99703.13;4998177;28;20135;-84
2021/12/26 09:42:13;;;;;;;14.68;4.80;;;2.00;85.00;;;0.05;77.12;99710.91;4997769;28;20499;-82
2021/12/26 09:44:41;;;;;;;10.32;5.00;;;2.00;84.90;;;0.09;76.56;99704.28;4997526;28;20053;-82
2021/12/26 09:50:48;;;;;;;10.50;5.03;;;2.00;85.10;;;0.16;76.83;99708.13;4975018;28;20574;-81
2021/12/26 09:53:16;;;;;;;9.32;5.10;;;2.00;85.40;;;0.19;76.73;99715.84;4997126;28;20143;-80
2021/12/26 09:55:43;;;;;;;7.70;4.80;;;2.00;85.20;;;0.22;76.55;99701.38;4998170;28;20121;-82
2021/12/26 09:58:11;;;;;;;8.93;5.10;;;2.10;85.20;;;0.24;76.66;99702.91;4996977;28;20042;-82
2021/12/26 10:00:41;;;;;;;12.60;5.15;;;2.10;85.10;;;0.28;76.88;99706.16;4998561;28;20380;-81
2021/12/26 10:03:18;;;;;;;11.48;5.13;;;2.00;85.40;;;0.29;76.65;99698.00;4978178;28;20391;-80
2021/12/26 10:06:05;;;;;;;9.15;5.25;;;2.10;85.70;;;0.31;76.85;99705.91;4978567;28;20077;-86
2021/12/26 10:08:37;;;;;;;9.77;5.40;;;2.10;85.60;;;0.36;76.76;99699.13;5000955;28;20046;-82
2021/12/26 10:11:12;;;;;;;9.75;4.93;;;2.10;85.50;;;0.39;76.83;99690.81;5001899;28;20510;-83
2021/12/26 10:13:42;;;;;;;12.15;5.50;;;2.20;85.40;;;0.44;76.95;99686.88;5001488;28;20050;-81
2021/12/26 10:16:11;;;;;;;11.30;5.20;;;2.20;85.40;;;0.50;77.08;99689.84;5000892;28;20388;-82
2021/12/26 10:18:39;;;;;;;9.85;5.38;;;2.30;85.60;;;0.58;76.85;99678.44;5002338;28;20068;-82
2021/12/26 10:21:32;;;;;;;9.48;5.70;;;2.30;85.80;;;0.59;77.01;99682.78;4998285;28;20049;-81
2021/12/26 10:24:05;;;;;;;11.88;6.18;;;2.30;86.00;;;0.61;77.03;99666.59;5000548;28;20080;-82
2021/12/26 10:26:42;;;;;;;10.68;5.25;;;2.40;85.80;;;0.68;77.25;99668.56;5002095;28;20070;-82
2021/12/26 10:29:23;;;;;;;10.63;5.75;;;2.40;86.10;;;0.70;77.09;99658.53;4999965;28;20566;-82
2021/12/26 10:32:09;;;;;;;9.43;5.83;;;2.40;85.90;;;0.75;77.53;99650.94;4999218;28;20125;-84
2021/12/26 10:34:42;;;;;;;9.85;5.50;;;2.50;86.10;;;0.81;77.41;99654.03;5002463;28;20317;-84
2021/12/26 10:37:16;;;;;;;9.48;5.53;;;2.60;86.20;;;0.83;77.65;99647.53;4984157;28;20133;-88
2021/12/26 10:39:47;;;;;;;9.85;6.30;;;2.60;86.40;;;0.87;78.31;99648.09;4980040;28;20180;-86
2021/12/26 10:42:19;;;;;;;9.75;5.80;;;2.60;86.80;;;0.95;78.38;99651.75;4983758;28;20049;-87
2021/12/26 10:44:48;;;;;;;;;;;2.60;87.10;;;0.97;78.46;99638.19;5001259;28;20049;-88
2021/12/26 10:47:19;;;;;;;11.60;5.90;;;2.70;86.90;;;0.97;78.49;99644.41;4984497;28;19960;-88
2021/12/26 10:49:53;;;;;;;10.05;6.15;;;2.70;87.20;;;1.05;78.91;99635.66;4984480;28;20131;-88